Cameron Station, Virginia
Current Conditions -  °F | °C
As of 8:52 AM on Monday 24 Nov 2014 (Local Time) from KDCA Reporting Station
Few Clouds Few Clouds  
Wind Chill: 67°   Ceiling: Unl
Heat Index: 67°   Visibility: 10mi
Dew Point: 58°   Wind: 13mph
Humidity: 73%   Direction: 190°S
Pressure: 29.69"   Gusts: 22mph
Location:  38.8134°N, 77.1153°W
Report Text: KDCA 241352Z 19011G19KT 10SM FEW035 19/14 A2969 RMK AO2 SLP053 T01940144
Loading
Personal Weather Stations






























Interactive Weather Map New forecast layout! Learn more

10-Day Weather Forecast

Advertisements
Track Severe Weather on mobile